^^
Datos históricos de la estación: Murcia-Puente Tocinos
Diario Informe para Febrero 25, 2019 Unidades:  Métrico    Inglés   Ambas
Diario Semanal Mensual Anual Configurable
  Máximo: Mínimo: Media:
Temperatura: 19.2 °C 7.4 °C 12.4 °C
Punto de rocio: 9.0 °C -2.6 °C 5 °C
Humedad: 87% 23% 65%
Velocidad viento: 14.8km/h 0.0km/h 6.2km/h
Racha viento: 27.8km/h - -
Viento- - SSE
Presión: 1032.8 hPa 1028.5 hPa -
Precipitación: 0.0 mm    
Historical Graphs
 
 
Tabla de datos para Febrero 25, 2019
Hora Temperatura Punto de rocio Presión Viento Velocidad viento Racha viento Humedad Intensidad lluvia(por hora) Nubes
00:00 11.9 °C 8.9 °C 1032.0 hPa Calm   3.2 km/h 82% 0.0 mm CLR
00:05 12.0 °C 9.0 °C 1032.0 hPa Calm   4.7 km/h 82% 0.0 mm CLR
00:10 12.0 °C 9.0 °C 1032.0 hPa WSW 2.9 km/h 7.4 km/h 82% 0.0 mm CLR
00:15 11.9 °C 8.9 °C 1032.0 hPa WSW 2.9 km/h 7.6 km/h 82% 0.0 mm CLR
00:20 11.8 °C 8.8 °C 1031.8 hPa WSW 4.7 km/h 8.4 km/h 82% 0.0 mm CLR
00:25 11.7 °C 8.7 °C 1031.8 hPa WSW 4.7 km/h 7.4 km/h 82% 0.0 mm CLR
00:30 11.6 °C 8.8 °C 1031.8 hPa WSW 4.7 km/h 5.8 km/h 83% 0.0 mm CLR
00:35 11.5 °C 8.7 °C 1031.8 hPa WSW 4.7 km/h 6.9 km/h 83% 0.0 mm CLR
00:40 11.5 °C 8.7 °C 1031.8 hPa WSW 3.9 km/h 3.7 km/h 83% 0.0 mm CLR
00:45 11.5 °C 8.7 °C 1031.8 hPa West 3.9 km/h 7.4 km/h 83% 0.0 mm CLR
00:50 11.5 °C 8.7 °C 1031.8 hPa WSW 3.2 km/h 7.4 km/h 83% 0.0 mm CLR
00:55 11.4 °C 8.6 °C 1031.8 hPa SSW 3.2 km/h 9.3 km/h 83% 0.0 mm CLR
01:00 11.4 °C 8.6 °C 1031.8 hPa SSW 3.2 km/h 9.7 km/h 83% 0.0 mm CLR
01:05 11.3 °C 8.3 °C 1031.8 hPa SSW 4.7 km/h 7.4 km/h 82% 0.0 mm CLR
01:10 11.2 °C 8.2 °C 1031.8 hPa SSE 5.0 km/h 11.1 km/h 82% 0.0 mm CLR
01:15 10.9 °C 8.1 °C 1031.8 hPa South 5.0 km/h 13.0 km/h 83% 0.0 mm CLR
01:20 10.7 °C 7.9 °C 1031.9 hPa SSE 7.6 km/h 11.1 km/h 83% 0.0 mm CLR
01:25 10.5 °C 7.7 °C 1031.9 hPa South 7.6 km/h 9.3 km/h 83% 0.0 mm CLR
01:30 10.4 °C 7.8 °C 1031.9 hPa South 6.4 km/h 9.3 km/h 84% 0.0 mm CLR
01:35 10.3 °C 7.7 °C 1031.8 hPa South 6.4 km/h 9.3 km/h 84% 0.0 mm CLR
01:40 10.3 °C 7.7 °C 1031.8 hPa SSW 6.4 km/h 9.3 km/h 84% 0.0 mm CLR
01:45 10.2 °C 7.6 °C 1031.8 hPa South 6.4 km/h 7.4 km/h 84% 0.0 mm CLR
01:50 10.2 °C 7.6 °C 1031.7 hPa SSW 6.4 km/h 11.1 km/h 84% 0.0 mm CLR
01:55 10.2 °C 7.6 °C 1031.7 hPa SSW 6.4 km/h 9.3 km/h 84% 0.0 mm CLR
02:00 10.1 °C 7.5 °C 1031.7 hPa SSW 8.0 km/h 11.3 km/h 84% 0.0 mm CLR
02:05 10.2 °C 7.6 °C 1031.5 hPa SSW 7.6 km/h 8.7 km/h 84% 0.0 mm CLR
02:10 10.2 °C 7.6 °C 1031.5 hPa South 5.8 km/h 9.3 km/h 84% 0.0 mm CLR
02:15 10.2 °C 7.4 °C 1031.5 hPa South 5.8 km/h 7.4 km/h 83% 0.0 mm CLR
02:20 10.2 °C 7.4 °C 1031.6 hPa SE 6.9 km/h 7.4 km/h 83% 0.0 mm CLR
02:25 10.1 °C 7.3 °C 1031.6 hPa South 6.9 km/h 9.3 km/h 83% 0.0 mm CLR
02:30 9.9 °C 7.2 °C 1031.6 hPa SSE 5.0 km/h 9.3 km/h 83% 0.0 mm CLR
02:35 9.8 °C 7.2 °C 1031.5 hPa SSW 5.0 km/h 7.4 km/h 84% 0.0 mm CLR
02:40 9.7 °C 7.1 °C 1031.5 hPa WSW 5.8 km/h 10.0 km/h 84% 0.0 mm CLR
02:45 9.8 °C 7.4 °C 1031.5 hPa WSW 5.8 km/h 7.4 km/h 85% 0.0 mm CLR
02:50 9.8 °C 7.4 °C 1031.4 hPa WSW 5.8 km/h 7.4 km/h 85% 0.0 mm CLR
02:55 9.8 °C 7.4 °C 1031.4 hPa WSW 5.8 km/h 7.4 km/h 85% 0.0 mm CLR
03:00 9.8 °C 7.4 °C 1031.4 hPa WSW 4.8 km/h 6.4 km/h 85% 0.0 mm CLR
03:05 9.8 °C 7.4 °C 1031.4 hPa WSW 5.0 km/h 5.6 km/h 85% 0.0 mm CLR
03:10 9.9 °C 7.5 °C 1031.4 hPa WSW 3.9 km/h 4.7 km/h 85% 0.0 mm CLR
03:15 9.8 °C 7.4 °C 1031.4 hPa WSW 3.9 km/h 7.4 km/h 85% 0.0 mm CLR
03:20 9.8 °C 7.4 °C 1031.5 hPa WSW 3.2 km/h 3.7 km/h 85% 0.0 mm CLR
03:25 9.8 °C 7.2 °C 1031.5 hPa SW 3.2 km/h 7.6 km/h 84% 0.0 mm CLR
03:30 9.8 °C 7.2 °C 1031.5 hPa SW 4.7 km/h 7.4 km/h 84% 0.0 mm CLR
03:35 9.8 °C 7.2 °C 1031.3 hPa SW 4.7 km/h 7.4 km/h 84% 0.0 mm CLR
03:40 9.8 °C 7.2 °C 1031.3 hPa SW 4.7 km/h 5.6 km/h 84% 0.0 mm CLR
03:45 9.7 °C 6.9 °C 1031.3 hPa SW 4.7 km/h 5.6 km/h 83% 0.0 mm CLR
03:50 9.7 °C 6.9 °C 1031.4 hPa SW 3.2 km/h 7.4 km/h 83% 0.0 mm CLR
03:55 9.5 °C 6.8 °C 1031.4 hPa SW 3.2 km/h 6.4 km/h 83% 0.0 mm CLR
04:00 9.4 °C 6.6 °C 1031.4 hPa SW 3.2 km/h 8.0 km/h 83% 0.0 mm CLR
04:05 9.1 °C 6.4 °C 1031.4 hPa South 3.9 km/h 7.4 km/h 83% 0.0 mm CLR
04:10 9.0 °C 6.3 °C 1031.4 hPa South 4.7 km/h 5.6 km/h 83% 0.0 mm CLR
04:15 9.0 °C 6.4 °C 1031.4 hPa South 4.7 km/h 3.7 km/h 84% 0.0 mm CLR
04:20 9.1 °C 6.7 °C 1031.5 hPa South 3.2 km/h 5.6 km/h 85% 0.0 mm CLR
04:25 9.2 °C 6.8 °C 1031.5 hPa SSW 3.2 km/h 4.7 km/h 85% 0.0 mm CLR
04:30 9.2 °C 6.8 °C 1031.5 hPa SSW 3.2 km/h 3.7 km/h 85% 0.0 mm CLR
04:35 9.3 °C 6.7 °C 1031.5 hPa SSW 3.2 km/h 4.7 km/h 84% 0.0 mm CLR
04:40 9.3 °C 6.7 °C 1031.5 hPa SSW 2.3 km/h 6.4 km/h 84% 0.0 mm CLR
04:45 9.3 °C 6.7 °C 1031.5 hPa SSW 2.3 km/h 5.6 km/h 84% 0.0 mm CLR
04:50 9.2 °C 6.4 °C 1031.5 hPa SE 3.9 km/h 7.4 km/h 83% 0.0 mm CLR
04:55 8.9 °C 6.3 °C 1031.5 hPa SE 3.9 km/h 7.4 km/h 84% 0.0 mm CLR
05:00 8.7 °C 5.9 °C 1031.5 hPa SE 4.8 km/h 8.0 km/h 83% 0.0 mm CLR
05:05 8.4 °C 5.8 °C 1031.5 hPa South 5.8 km/h 7.4 km/h 84% 0.0 mm CLR
05:10 8.3 °C 5.9 °C 1031.5 hPa South 4.7 km/h 7.4 km/h 85% 0.0 mm CLR
05:15 8.2 °C 5.8 °C 1031.5 hPa South 4.7 km/h 5.6 km/h 85% 0.0 mm CLR
05:20 8.2 °C 5.8 °C 1031.6 hPa South 4.7 km/h 7.4 km/h 85% 0.0 mm CLR
05:25 8.1 °C 5.7 °C 1031.6 hPa SSE 4.7 km/h 7.4 km/h 85% 0.0 mm CLR
05:30 8.1 °C 5.7 °C 1031.6 hPa SSE 5.8 km/h 5.6 km/h 85% 0.0 mm CLR
05:35 8.0 °C 5.8 °C 1031.8 hPa SSE 5.8 km/h 7.4 km/h 86% 0.0 mm CLR
05:40 7.9 °C 5.7 °C 1031.8 hPa SSE 3.9 km/h 9.3 km/h 86% 0.0 mm CLR
05:45 7.9 °C 5.7 °C 1031.8 hPa SSE 3.9 km/h 7.4 km/h 86% 0.0 mm CLR
05:50 7.8 °C 5.6 °C 1031.9 hPa SSE 5.8 km/h 7.6 km/h 86% 0.0 mm CLR
05:55 7.7 °C 5.5 °C 1031.9 hPa South 5.8 km/h 7.4 km/h 86% 0.0 mm CLR
06:00 7.7 °C 5.5 °C 1031.9 hPa SSE 4.8 km/h 8.0 km/h 86% 0.0 mm CLR
06:05 7.7 °C 5.5 °C 1032.0 hPa South 5.0 km/h 5.6 km/h 86% 0.0 mm CLR
06:10 7.7 °C 5.5 °C 1032.0 hPa South 3.9 km/h 5.6 km/h 86% 0.0 mm CLR
06:15 7.7 °C 5.5 °C 1032.0 hPa South 3.9 km/h 5.6 km/h 86% 0.0 mm CLR
06:20 7.7 °C 5.5 °C 1032.2 hPa South 2.9 km/h 5.6 km/h 86% 0.0 mm CLR
06:25 7.7 °C 5.5 °C 1032.2 hPa South 2.9 km/h 7.4 km/h 86% 0.0 mm CLR
06:30 7.7 °C 5.3 °C 1032.2 hPa South 3.9 km/h 5.8 km/h 85% 0.0 mm CLR
06:35 7.6 °C 5.4 °C 1032.1 hPa SW 3.9 km/h 5.6 km/h 86% 0.0 mm CLR
06:40 7.6 °C 5.4 °C 1032.1 hPa SW 4.7 km/h 7.4 km/h 86% 0.0 mm CLR
06:45 7.7 °C 5.7 °C 1032.1 hPa SW 4.7 km/h 5.8 km/h 87% 0.0 mm CLR
06:50 7.8 °C 5.6 °C 1032.1 hPa SE 4.7 km/h 11.1 km/h 86% 0.0 mm CLR
06:55 7.8 °C 5.6 °C 1032.1 hPa SSE 4.7 km/h 10.0 km/h 86% 0.0 mm CLR
07:00 7.7 °C 5.3 °C 1032.1 hPa SSE 8.0 km/h 11.3 km/h 85% 0.0 mm CLR
07:05 7.6 °C 5.2 °C 1032.2 hPa South 6.9 km/h 8.7 km/h 85% 0.0 mm CLR
07:10 7.5 °C 5.2 °C 1032.2 hPa SSW 6.4 km/h 9.3 km/h 85% 0.0 mm CLR
07:15 7.4 °C 5.2 °C 1032.2 hPa SSW 6.4 km/h 9.3 km/h 86% 0.0 mm CLR
07:20 7.4 °C 5.2 °C 1032.2 hPa SSW 6.4 km/h 8.7 km/h 86% 0.0 mm CLR
07:25 7.5 °C 5.3 °C 1032.2 hPa South 6.4 km/h 11.1 km/h 86% 0.0 mm CLR
07:30 7.5 °C 5.3 °C 1032.2 hPa SSW 6.9 km/h 7.4 km/h 86% 0.0 mm CLR
07:35 7.5 °C 5.3 °C 1032.4 hPa SW 6.9 km/h 9.3 km/h 86% 0.0 mm CLR
07:40 7.5 °C 5.3 °C 1032.4 hPa SW 5.8 km/h 7.4 km/h 86% 0.0 mm CLR
07:45 7.5 °C 5.3 °C 1032.4 hPa WSW 5.8 km/h 9.3 km/h 86% 0.0 mm CLR
07:50 7.6 °C 5.4 °C 1032.5 hPa SW 6.4 km/h 9.5 km/h 86% 0.0 mm CLR
07:55 7.6 °C 5.2 °C 1032.5 hPa SW 6.4 km/h 11.1 km/h 85% 0.0 mm CLR
08:00 7.6 °C 5.2 °C 1032.5 hPa SW 8.0 km/h 14.5 km/h 85% 0.0 mm CLR
08:05 7.6 °C 5.2 °C 1032.5 hPa SW 6.9 km/h 11.1 km/h 85% 0.0 mm CLR
08:10 7.7 °C 5.3 °C 1032.5 hPa SSW 7.6 km/h 9.3 km/h 85% 0.0 mm CLR
08:15 7.7 °C 5.3 °C 1032.5 hPa WSW 7.6 km/h 9.5 km/h 85% 0.0 mm CLR
08:20 7.7 °C 5.3 °C 1032.7 hPa SW 5.8 km/h 9.3 km/h 85% 0.0 mm CLR
08:25 7.8 °C 5.4 °C 1032.7 hPa SW 5.8 km/h 7.4 km/h 85% 0.0 mm CLR
08:30 7.9 °C 5.4 °C 1032.7 hPa South 5.8 km/h 7.4 km/h 84% 0.0 mm CLR
08:35 8.0 °C 5.4 °C 1032.7 hPa SW 5.8 km/h 9.5 km/h 84% 0.0 mm CLR
08:40 8.1 °C 5.6 °C 1032.7 hPa SW 5.8 km/h 9.3 km/h 84% 0.0 mm CLR
08:45 8.3 °C 5.8 °C 1032.7 hPa SSW 5.8 km/h 11.1 km/h 84% 0.0 mm CLR
08:50 8.2 °C 5.7 °C 1032.8 hPa WSW 6.9 km/h 9.3 km/h 84% 0.0 mm CLR
08:55 8.4 °C 5.7 °C 1032.8 hPa SW 6.9 km/h 8.7 km/h 83% 0.0 mm CLR
09:00 8.4 °C 5.7 °C 1032.8 hPa SW 4.8 km/h 12.9 km/h 83% 0.0 mm CLR
09:05 8.5 °C 5.8 °C 1032.7 hPa SSW 5.8 km/h 11.1 km/h 83% 0.0 mm CLR
09:10 8.6 °C 5.9 °C 1032.7 hPa SW 8.4 km/h 11.1 km/h 83% 0.0 mm CLR
09:15 8.7 °C 5.8 °C 1032.7 hPa SSW 8.4 km/h 11.1 km/h 82% 0.0 mm CLR
09:20 8.8 °C 5.9 °C 1032.7 hPa WSW 7.6 km/h 9.3 km/h 82% 0.0 mm CLR
09:25 8.9 °C 5.8 °C 1032.7 hPa SSW 7.6 km/h 7.4 km/h 81% 0.0 mm CLR
09:30 8.9 °C 5.8 °C 1032.7 hPa SW 6.4 km/h 9.3 km/h 81% 0.0 mm CLR
09:35 9.1 °C 6.0 °C 1032.8 hPa SW 6.4 km/h 9.3 km/h 81% 0.0 mm CLR
09:40 9.2 °C 6.1 °C 1032.8 hPa SW 6.9 km/h 9.3 km/h 81% 0.0 mm CLR
09:45 9.4 °C 6.1 °C 1032.8 hPa SW 6.9 km/h 13.0 km/h 80% 0.0 mm CLR
09:50 9.5 °C 6.1 °C 1032.7 hPa WSW 8.7 km/h 11.1 km/h 79% 0.0 mm CLR
09:55 9.7 °C 5.7 °C 1032.7 hPa SSW 8.7 km/h 16.7 km/h 76% 0.0 mm CLR
10:00 9.7 °C 5.7 °C 1032.7 hPa SSW 9.7 km/h 16.1 km/h 76% 0.0 mm CLR
10:05 9.8 °C 5.6 °C 1032.7 hPa SSW 9.5 km/h 13.7 km/h 75% 0.0 mm CLR
10:10 9.9 °C 5.7 °C 1032.7 hPa WSW 10.3 km/h 13.0 km/h 75% 0.0 mm CLR
10:15 10.1 °C 5.7 °C 1032.7 hPa SSW 10.3 km/h 12.2 km/h 74% 0.0 mm CLR
10:20 10.2 °C 5.8 °C 1032.6 hPa SSW 8.7 km/h 13.0 km/h 74% 0.0 mm CLR
10:25 10.2 °C 5.8 °C 1032.6 hPa South 8.7 km/h 11.1 km/h 74% 0.0 mm CLR
10:30 10.4 °C 5.9 °C 1032.6 hPa SW 8.4 km/h 11.1 km/h 74% 0.0 mm CLR
10:35 10.6 °C 6.2 °C 1032.6 hPa SSW 8.4 km/h 13.0 km/h 74% 0.0 mm CLR
10:40 10.8 °C 6.3 °C 1032.6 hPa WSW 8.4 km/h 11.1 km/h 74% 0.0 mm CLR
10:45 10.9 °C 6.2 °C 1032.6 hPa SSW 8.4 km/h 16.7 km/h 73% 0.0 mm CLR
10:50 11.1 °C 6.4 °C 1032.4 hPa SSW 8.4 km/h 11.1 km/h 73% 0.0 mm CLR
10:55 11.4 °C 6.7 °C 1032.4 hPa WSW 8.4 km/h 11.1 km/h 73% 0.0 mm CLR
11:00 11.7 °C 6.8 °C 1032.4 hPa SSW 8.0 km/h 11.3 km/h 72% 0.0 mm CLR
11:05 11.9 °C 6.8 °C 1032.4 hPa West 7.6 km/h 7.4 km/h 71% 0.0 mm CLR
11:10 12.1 °C 7.0 °C 1032.4 hPa SW 6.4 km/h 14.8 km/h 71% 0.0 mm CLR
11:15 12.2 °C 6.9 °C 1032.4 hPa SW 6.4 km/h 11.1 km/h 70% 0.0 mm CLR
11:20 12.3 °C 7.0 °C 1032.3 hPa SSW 8.4 km/h 8.4 km/h 70% 0.0 mm CLR
11:25 12.6 °C 7.5 °C 1032.3 hPa WSW 8.4 km/h 3.7 km/h 71% 0.0 mm CLR
11:30 12.8 °C 7.3 °C 1032.3 hPa SE 5.8 km/h 9.3 km/h 69% 0.0 mm CLR
11:35 13.2 °C 7.4 °C 1032.2 hPa SW 5.8 km/h 11.1 km/h 68% 0.0 mm CLR
11:40 13.5 °C 7.5 °C 1032.2 hPa SSW 5.8 km/h 9.3 km/h 67% 0.0 mm CLR
11:45 13.7 °C 7.7 °C 1032.2 hPa SSW 5.8 km/h 11.1 km/h 67% 0.0 mm CLR
11:50 13.7 °C 7.4 °C 1032.1 hPa SSW 8.4 km/h 7.4 km/h 66% 0.0 mm CLR
11:55 13.9 °C 7.7 °C 1032.1 hPa South 8.4 km/h 9.3 km/h 66% 0.0 mm CLR
12:00 14.1 °C 7.6 °C 1032.1 hPa South 4.8 km/h 12.9 km/h 65% 0.0 mm CLR
12:05 14.3 °C 7.6 °C 1032.0 hPa South 5.8 km/h 7.4 km/h 64% 0.0 mm CLR
12:10 14.5 °C 7.6 °C 1032.0 hPa WSW 6.4 km/h 3.7 km/h 63% 0.0 mm CLR
12:15 14.7 °C 7.5 °C 1032.0 hPa SSW 6.4 km/h 7.6 km/h 62% 0.0 mm CLR
12:20 15.1 °C 7.4 °C 1031.8 hPa SW 3.2 km/h 7.4 km/h 60% 0.0 mm CLR
12:25 15.4 °C 7.2 °C 1031.8 hPa WSW 3.2 km/h 5.6 km/h 58% 0.0 mm CLR
12:30 15.6 °C 6.6 °C 1031.8 hPa WNW 3.2 km/h 3.7 km/h 55% 0.0 mm CLR
12:35 15.9 °C 6.6 °C 1031.6 hPa West 3.2 km/h 8.4 km/h 54% 0.0 mm CLR
12:40 16.0 °C 6.4 °C 1031.6 hPa NW 4.7 km/h 3.7 km/h 53% 0.0 mm CLR
12:45 16.2 °C 6.1 °C 1031.6 hPa NNE 4.7 km/h 7.4 km/h 51% 0.0 mm CLR
12:50 16.3 °C 5.3 °C 1031.4 hPa ENE 3.9 km/h 5.6 km/h 48% 0.0 mm CLR
12:55 16.7 °C 5.0 °C 1031.4 hPa NE 3.9 km/h 5.6 km/h 46% 0.0 mm CLR
13:00 16.8 °C 4.2 °C 1031.4 hPa NE 3.2 km/h 9.7 km/h 43% 0.0 mm CLR
13:05 17.1 °C 4.4 °C 1031.1 hPa ESE 3.2 km/h 7.4 km/h 43% 0.0 mm CLR
13:10 17.4 °C 4.0 °C 1031.1 hPa North 2.9 km/h 7.4 km/h 41% 0.0 mm CLR
13:15 17.4 °C 3.7 °C 1031.1 hPa WNW 2.9 km/h 5.6 km/h 40% 0.0 mm CLR
13:20 17.6 °C 1.6 °C 1030.8 hPa North 3.9 km/h 10.0 km/h 34% 0.0 mm CLR
13:25 17.5 °C 1.1 °C 1030.8 hPa ENE 3.9 km/h 16.7 km/h 33% 0.0 mm CLR
13:30 17.4 °C 1.3 °C 1030.8 hPa ENE 8.4 km/h 11.1 km/h 34% 0.0 mm CLR
13:35 17.6 °C 1.6 °C 1030.5 hPa East 8.4 km/h 5.6 km/h 34% 0.0 mm CLR
13:40 17.8 °C 0.4 °C 1030.5 hPa North 3.9 km/h 13.0 km/h 31% 0.0 mm CLR
13:45 18.1 °C 0.2 °C 1030.5 hPa ESE 3.9 km/h 11.1 km/h 30% 0.0 mm CLR
13:50 18.1 °C -0.7 °C 1030.3 hPa East 7.6 km/h 9.3 km/h 28% 0.0 mm CLR
13:55 18.2 °C -0.6 °C 1030.3 hPa NE 7.6 km/h 9.3 km/h 28% 0.0 mm CLR
14:00 18.2 °C -1.7 °C 1030.3 hPa ENE 8.0 km/h 16.1 km/h 26% 0.0 mm CLR
14:05 18.1 °C -1.2 °C 1030.2 hPa NE 6.4 km/h 11.1 km/h 27% 0.0 mm CLR
14:10 18.2 °C -1.1 °C 1030.2 hPa ESE 9.5 km/h 10.0 km/h 27% 0.0 mm CLR
14:15 18.3 °C -1.1 °C 1030.2 hPa East 9.5 km/h 9.3 km/h 27% 0.0 mm CLR
14:20 18.3 °C -0.6 °C 1029.9 hPa NE 6.9 km/h 16.7 km/h 28% 0.0 mm CLR
14:25 18.5 °C 0.1 °C 1029.9 hPa East 6.9 km/h 7.4 km/h 29% 0.0 mm CLR
14:30 18.6 °C 0.2 °C 1029.9 hPa ENE 7.6 km/h 16.7 km/h 29% 0.0 mm CLR
14:35 18.6 °C 0.2 °C 1029.7 hPa ENE 7.6 km/h 11.1 km/h 29% 0.0 mm CLR
14:40 18.7 °C -0.2 °C 1029.7 hPa NNE 8.4 km/h 14.8 km/h 28% 0.0 mm CLR
14:45 18.7 °C -0.2 °C 1029.7 hPa NE 8.4 km/h 16.4 km/h 28% 0.0 mm CLR
14:50 18.6 °C -0.3 °C 1029.5 hPa ENE 10.3 km/h 14.8 km/h 28% 0.0 mm CLR
14:55 18.7 °C -0.2 °C 1029.5 hPa NE 10.3 km/h 13.0 km/h 28% 0.0 mm CLR
15:00 18.7 °C -0.2 °C 1029.5 hPa ENE 8.0 km/h 14.5 km/h 28% 0.0 mm CLR
15:05 18.9 °C -0.5 °C 1029.3 hPa North 8.4 km/h 13.0 km/h 27% 0.0 mm CLR
15:10 18.9 °C -1.1 °C 1029.3 hPa NE 7.6 km/h 18.5 km/h 26% 0.0 mm CLR
15:15 19.0 °C -1.5 °C 1029.3 hPa NE 7.6 km/h 13.0 km/h 25% 0.0 mm CLR
15:20 19.1 °C -1.4 °C 1029.2 hPa North 9.5 km/h 20.4 km/h 25% 0.0 mm CLR
15:25 19.0 °C -0.9 °C 1029.2 hPa NE 9.5 km/h 10.3 km/h 26% 0.0 mm CLR
15:30 19.0 °C -1.5 °C 1029.2 hPa NE 10.0 km/h 14.8 km/h 25% 0.0 mm CLR
15:35 19.0 °C -1.5 °C 1028.9 hPa North 10.0 km/h 7.4 km/h 25% 0.0 mm CLR
15:40 19.1 °C -1.4 °C 1028.9 hPa ENE 7.6 km/h 15.6 km/h 25% 0.0 mm CLR
15:45 18.9 °C -2.1 °C 1028.9 hPa ENE 7.6 km/h 18.5 km/h 24% 0.0 mm CLR
15:50 19.1 °C -1.4 °C 1028.8 hPa NE 10.0 km/h 7.4 km/h 25% 0.0 mm CLR
15:55 19.2 °C -2.4 °C 1028.8 hPa ESE 10.0 km/h 13.0 km/h 23% 0.0 mm CLR
16:00 19.1 °C -2.6 °C 1028.8 hPa ENE 9.7 km/h 20.9 km/h 23% 0.0 mm CLR
16:05 19.1 °C -2.6 °C 1028.8 hPa East 8.7 km/h 11.1 km/h 23% 0.0 mm CLR
16:10 19.1 °C -2.6 °C 1028.8 hPa ENE 9.5 km/h 13.0 km/h 23% 0.0 mm CLR
16:15 19.1 °C -2.6 °C 1028.8 hPa ENE 9.5 km/h 11.1 km/h 23% 0.0 mm CLR
16:20 19.2 °C -2.4 °C 1028.7 hPa NNE 7.6 km/h 14.8 km/h 23% 0.0 mm CLR
16:25 19.1 °C -0.3 °C 1028.7 hPa South 7.6 km/h 14.8 km/h 27% 0.0 mm CLR
16:30 19.1 °C -0.9 °C 1028.7 hPa ESE 8.4 km/h 12.2 km/h 26% 0.0 mm CLR
16:35 19.2 °C -0.3 °C 1028.7 hPa ESE 8.4 km/h 14.8 km/h 27% 0.0 mm CLR
16:40 19.2 °C -0.3 °C 1028.7 hPa East 8.4 km/h 13.0 km/h 27% 0.0 mm CLR
16:45 19.1 °C 0.2 °C 1028.7 hPa ESE 8.4 km/h 11.1 km/h 28% 0.0 mm CLR
16:50 18.9 °C 0.0 °C 1028.5 hPa ENE 9.5 km/h 20.4 km/h 28% 0.0 mm CLR
16:55 18.9 °C 0.4 °C 1028.5 hPa East 9.5 km/h 18.5 km/h 29% 0.0 mm CLR
17:00 18.8 °C 0.4 °C 1028.5 hPa East 11.3 km/h 16.1 km/h 29% 0.0 mm CLR
17:05 18.8 °C 0.4 °C 1028.6 hPa East 10.3 km/h 11.1 km/h 29% 0.0 mm CLR
17:10 18.7 °C 0.8 °C 1028.6 hPa ESE 9.5 km/h 14.8 km/h 30% 0.0 mm CLR
17:15 18.5 °C 1.1 °C 1028.6 hPa ESE 9.5 km/h 18.5 km/h 31% 0.0 mm CLR
17:20 18.4 °C 1.4 °C 1028.6 hPa ESE 12.2 km/h 16.7 km/h 32% 0.0 mm CLR
17:25 18.3 °C 1.7 °C 1028.6 hPa ESE 12.2 km/h 14.8 km/h 33% 0.0 mm CLR
17:30 18.2 °C 2.1 °C 1028.6 hPa ESE 11.9 km/h 16.7 km/h 34% 0.0 mm CLR
17:35 17.9 °C 2.6 °C 1028.8 hPa SE 11.9 km/h 21.7 km/h 36% 0.0 mm CLR
17:40 17.7 °C 2.8 °C 1028.8 hPa ESE 14.0 km/h 22.2 km/h 37% 0.0 mm CLR
17:45 17.3 °C 3.2 °C 1028.8 hPa SE 14.0 km/h 27.8 km/h 39% 0.0 mm CLR
17:50 17.2 °C 3.4 °C 1029.0 hPa SE 14.8 km/h 18.5 km/h 40% 0.0 mm CLR
17:55 17.2 °C 3.8 °C 1029.0 hPa ESE 14.8 km/h 17.2 km/h 41% 0.0 mm CLR
18:00 17.1 °C 3.7 °C 1029.0 hPa ESE 12.9 km/h 19.3 km/h 41% 0.0 mm CLR
18:05 16.9 °C 3.9 °C 1029.2 hPa ESE 12.2 km/h 13.0 km/h 42% 0.0 mm CLR
18:10 16.8 °C 3.8 °C 1029.2 hPa ESE 10.3 km/h 14.8 km/h 42% 0.0 mm CLR
18:15 16.8 °C 3.8 °C 1029.2 hPa ESE 10.3 km/h 11.1 km/h 42% 0.0 mm CLR
18:20 16.8 °C 3.8 °C 1029.3 hPa East 8.7 km/h 14.8 km/h 42% 0.0 mm CLR
18:25 16.5 °C 3.9 °C 1029.3 hPa ESE 8.7 km/h 16.7 km/h 43% 0.0 mm CLR
18:30 16.3 °C 4.0 °C 1029.3 hPa ESE 10.3 km/h 18.0 km/h 44% 0.0 mm CLR
18:35 16.0 °C 3.7 °C 1029.4 hPa ESE 10.3 km/h 14.8 km/h 44% 0.0 mm CLR
18:40 15.9 °C 3.7 °C 1029.4 hPa East 10.3 km/h 14.8 km/h 44% 0.0 mm CLR
18:45 15.7 °C 3.8 °C 1029.4 hPa ESE 10.3 km/h 16.7 km/h 45% 0.0 mm CLR
18:50 15.6 °C 4.0 °C 1029.5 hPa SE 10.0 km/h 18.5 km/h 46% 0.0 mm CLR
18:55 15.4 °C 4.1 °C 1029.5 hPa ESE 10.0 km/h 14.8 km/h 47% 0.0 mm CLR
19:00 15.3 °C 4.1 °C 1029.5 hPa ESE 11.3 km/h 19.3 km/h 47% 0.0 mm CLR
19:05 15.1 °C 4.2 °C 1029.8 hPa SE 10.3 km/h 16.7 km/h 48% 0.0 mm CLR
19:10 14.9 °C 4.0 °C 1029.8 hPa East 10.3 km/h 11.1 km/h 48% 0.0 mm CLR
19:15 14.8 °C 3.9 °C 1029.8 hPa NE 10.3 km/h 11.1 km/h 48% 0.0 mm CLR
19:20 14.7 °C 4.1 °C 1029.9 hPa NE 6.9 km/h 9.3 km/h 49% 0.0 mm CLR
19:25 14.6 °C 4.0 °C 1029.9 hPa ENE 6.9 km/h 7.4 km/h 49% 0.0 mm CLR
19:30 14.4 °C 4.1 °C 1029.9 hPa NNE 5.8 km/h 10.3 km/h 50% 0.0 mm CLR
19:35 14.1 °C 4.9 °C 1030.1 hPa NE 5.8 km/h 13.0 km/h 54% 0.0 mm CLR
19:40 13.9 °C 5.0 °C 1030.1 hPa NNE 8.4 km/h 7.4 km/h 55% 0.0 mm CLR
19:45 13.7 °C 5.3 °C 1030.1 hPa ESE 8.4 km/h 5.6 km/h 57% 0.0 mm CLR
19:50 13.7 °C 5.6 °C 1030.3 hPa SE 3.2 km/h 7.4 km/h 58% 0.0 mm CLR
19:55 13.6 °C 5.7 °C 1030.3 hPa ENE 3.2 km/h 11.1 km/h 59% 0.0 mm CLR
20:00 13.3 °C 5.7 °C 1030.3 hPa East 4.8 km/h 14.5 km/h 60% 0.0 mm CLR
20:05 13.1 °C 6.0 °C 1030.4 hPa NE 5.8 km/h 9.3 km/h 62% 0.0 mm CLR
20:10 12.8 °C 5.9 °C 1030.4 hPa NE 6.9 km/h 11.1 km/h 63% 0.0 mm CLR
20:15 12.6 °C 5.9 °C 1030.4 hPa NE 6.9 km/h 14.8 km/h 64% 0.0 mm CLR
20:20 12.5 °C 6.1 °C 1030.5 hPa NNE 9.5 km/h 11.1 km/h 65% 0.0 mm CLR
20:25 12.4 °C 6.0 °C 1030.5 hPa NE 9.5 km/h 9.3 km/h 65% 0.0 mm CLR
20:30 12.3 °C 6.1 °C 1030.5 hPa NE 6.9 km/h 7.4 km/h 66% 0.0 mm CLR
20:35 12.2 °C 6.1 °C 1030.5 hPa NE 6.9 km/h 7.4 km/h 66% 0.0 mm CLR
20:40 12.2 °C 6.1 °C 1030.5 hPa NNE 5.8 km/h 9.3 km/h 66% 0.0 mm CLR
20:45 12.0 °C 6.1 °C 1030.5 hPa NE 5.8 km/h 7.4 km/h 67% 0.0 mm CLR
20:50 11.9 °C 6.2 °C 1030.5 hPa NE 5.8 km/h 5.8 km/h 68% 0.0 mm CLR
20:55 11.9 °C 6.2 °C 1030.5 hPa NNE 5.8 km/h 7.6 km/h 68% 0.0 mm CLR
21:00 11.8 °C 6.3 °C 1030.5 hPa NE 4.8 km/h 9.7 km/h 69% 0.0 mm CLR
21:05 11.7 °C 6.4 °C 1030.5 hPa North 5.8 km/h 7.4 km/h 70% 0.0 mm CLR
21:10 11.6 °C 6.3 °C 1030.5 hPa NE 5.0 km/h 11.1 km/h 70% 0.0 mm CLR
21:15 11.4 °C 6.3 °C 1030.5 hPa NNE 5.0 km/h 12.2 km/h 71% 0.0 mm CLR
21:20 11.2 °C 6.3 °C 1030.6 hPa NE 7.6 km/h 9.3 km/h 72% 0.0 mm CLR
21:25 11.1 °C 6.2 °C 1030.6 hPa NE 7.6 km/h 9.3 km/h 72% 0.0 mm CLR
21:30 11.1 °C 6.2 °C 1030.6 hPa NNE 7.6 km/h 9.3 km/h 72% 0.0 mm CLR
21:35 11.0 °C 6.3 °C 1030.6 hPa NE 7.6 km/h 5.6 km/h 73% 0.0 mm CLR
21:40 11.0 °C 6.3 °C 1030.6 hPa NE 5.8 km/h 3.7 km/h 73% 0.0 mm CLR
21:45 10.9 °C 6.2 °C 1030.6 hPa NE 5.8 km/h 3.9 km/h 73% 0.0 mm CLR
21:50 10.9 °C 6.2 °C 1030.5 hPa NE 3.2 km/h 3.7 km/h 73% 0.0 mm CLR
21:55 10.9 °C 6.4 °C 1030.5 hPa NE 3.2 km/h 3.7 km/h 74% 0.0 mm CLR
22:00 10.9 °C 6.4 °C 1030.5 hPa NE 1.6 km/h 3.2 km/h 74% 0.0 mm CLR
22:05 10.9 °C 6.4 °C 1030.5 hPa NE 2.3 km/h   74% 0.0 mm CLR
22:10 10.8 °C 6.6 °C 1030.5 hPa Calm     75% 0.0 mm CLR
22:15 10.8 °C 6.6 °C 1030.5 hPa Calm     75% 0.0 mm CLR
22:20 10.8 °C 6.6 °C 1030.6 hPa Calm     75% 0.0 mm CLR
22:25 10.9 °C 6.4 °C 1030.6 hPa Calm   3.7 km/h 74% 0.0 mm CLR
22:30 10.8 °C 6.3 °C 1030.6 hPa NE 2.3 km/h   74% 0.0 mm CLR
22:35 10.8 °C 6.3 °C 1030.5 hPa NE 2.3 km/h   74% 0.0 mm CLR
22:40 10.8 °C 6.3 °C 1030.5 hPa Calm     74% 0.0 mm CLR
22:45 10.8 °C 6.3 °C 1030.5 hPa Calm   3.7 km/h 74% 0.0 mm CLR
22:50 10.8 °C 6.3 °C 1030.5 hPa NE 2.3 km/h   74% 0.0 mm CLR
22:55 10.8 °C 6.6 °C 1030.5 hPa NE 2.3 km/h 3.7 km/h 75% 0.0 mm CLR
23:00 10.8 °C 6.6 °C 1030.5 hPa Calm   3.2 km/h 75% 0.0 mm CLR
23:05 10.7 °C 6.4 °C 1030.4 hPa Calm     75% 0.0 mm CLR
23:10 10.7 °C 6.3 °C 1030.4 hPa Calm   3.7 km/h 74% 0.0 mm CLR
23:15 10.6 °C 6.2 °C 1030.4 hPa Calm     74% 0.0 mm CLR
23:20 10.4 °C 5.9 °C 1030.4 hPa Calm   1.9 km/h 74% 0.0 mm CLR
23:25 10.3 °C 5.9 °C 1030.4 hPa Calm     74% 0.0 mm CLR
23:30 10.3 °C 5.9 °C 1030.4 hPa Calm     74% 0.0 mm CLR
23:35 10.2 °C 5.9 °C 1030.3 hPa Calm   4.7 km/h 75% 0.0 mm CLR
23:40 10.2 °C 5.6 °C 1030.3 hPa NE 2.3 km/h 5.0 km/h 73% 0.0 mm CLR
23:45 10.1 °C 5.5 °C 1030.3 hPa South 2.3 km/h 5.8 km/h 73% 0.0 mm CLR
23:50 10.1 °C 5.5 °C 1030.1 hPa SSE 3.9 km/h 7.4 km/h 73% 0.0 mm CLR
23:55 10.1 °C 5.5 °C 1030.1 hPa SE 3.9 km/h 9.3 km/h 73% 0.0 mm CLR
Murcia-Puente Tocinos, España
Compliments of Weather Underground - 2.75 mb

La estación de MeteoMurcia.com, publica sus datos en los siguientes proyectos:

Weather Underground PWS IMURCIAP2 Meteoclimatic www.awekas.at

W3Counter
Web Analytics